sensor_id;sensor_type;location;lat;lon;timestamp;temperature;humidity
69031;DHT22;56083;48.774;8.942;2023-11-19T06:51:50;10.70;99.90
69031;DHT22;56083;48.774;8.942;2023-11-19T07:06:35;10.70;99.90
69031;DHT22;56083;48.774;8.942;2023-11-19T07:11:38;10.80;99.90
69031;DHT22;56083;48.774;8.942;2023-11-19T07:14:05;11.00;99.90
69031;DHT22;56083;48.774;8.942;2023-11-19T07:16:34;11.00;99.90
69031;DHT22;56083;48.774;8.942;2023-11-19T07:19:02;11.00;99.90
69031;DHT22;56083;48.774;8.942;2023-11-19T07:23:57;10.90;99.90
69031;DHT22;56083;48.774;8.942;2023-11-19T07:26:23;11.00;99.90
69031;DHT22;56083;48.774;8.942;2023-11-19T07:31:17;10.90;99.90
69031;DHT22;56083;48.774;8.942;2023-11-19T07:33:47;11.10;99.90
69031;DHT22;56083;48.774;8.942;2023-11-19T07:36:13;11.10;99.90
69031;DHT22;56083;48.774;8.942;2023-11-19T07:38:39;11.10;99.90
69031;DHT22;56083;48.774;8.942;2023-11-19T07:43:32;11.00;99.90
69031;DHT22;56083;48.774;8.942;2023-11-19T07:45:58;11.10;99.90
69031;DHT22;56083;48.774;8.942;2023-11-19T07:48:25;11.10;99.90
69031;DHT22;56083;48.774;8.942;2023-11-19T07:50:52;11.20;99.90
69031;DHT22;56083;48.774;8.942;2023-11-19T07:53:18;11.20;99.90
69031;DHT22;56083;48.774;8.942;2023-11-19T07:58:12;11.10;99.90
69031;DHT22;56083;48.774;8.942;2023-11-19T08:00:38;11.30;99.90
69031;DHT22;56083;48.774;8.942;2023-11-19T08:03:04;11.40;99.90
69031;DHT22;56083;48.774;8.942;2023-11-19T08:05:31;11.30;99.90
69031;DHT22;56083;48.774;8.942;2023-11-19T08:07:56;11.40;99.90
69031;DHT22;56083;48.774;8.942;2023-11-19T08:10:22;11.40;99.90
69031;DHT22;56083;48.774;8.942;2023-11-19T08:15:14;11.40;99.90
69031;DHT22;56083;48.774;8.942;2023-11-19T08:17:41;11.60;99.90
69031;DHT22;56083;48.774;8.942;2023-11-19T08:20:08;11.40;99.90
69031;DHT22;56083;48.774;8.942;2023-11-19T08:22:37;11.50;99.90
69031;DHT22;56083;48.774;8.942;2023-11-19T08:25:07;11.50;99.90
69031;DHT22;56083;48.774;8.942;2023-11-19T08:27:33;11.50;99.90
69031;DHT22;56083;48.774;8.942;2023-11-19T08:29:59;11.50;99.90
69031;DHT22;56083;48.774;8.942;2023-11-19T08:32:25;11.70;99.90
69031;DHT22;56083;48.774;8.942;2023-11-19T08:34:51;12.00;99.90
69031;DHT22;56083;48.774;8.942;2023-11-19T08:37:17;12.00;99.90
69031;DHT22;56083;48.774;8.942;2023-11-19T08:39:48;12.00;99.90
69031;DHT22;56083;48.774;8.942;2023-11-19T08:49:35;11.60;99.90
69031;DHT22;56083;48.774;8.942;2023-11-19T08:52:00;11.70;99.90
69031;DHT22;56083;48.774;8.942;2023-11-19T08:54:26;11.90;99.90
69031;DHT22;56083;48.774;8.942;2023-11-19T08:56:52;12.10;99.90
69031;DHT22;56083;48.774;8.942;2023-11-19T08:59:18;12.60;99.90
69031;DHT22;56083;48.774;8.942;2023-11-19T09:09:05;13.30;99.90
69031;DHT22;56083;48.774;8.942;2023-11-19T09:13:57;13.10;99.90
69031;DHT22;56083;48.774;8.942;2023-11-19T09:18:50;13.00;99.90
69031;DHT22;56083;48.774;8.942;2023-11-19T09:21:16;13.10;99.90
69031;DHT22;56083;48.774;8.942;2023-11-19T09:23:42;13.50;99.90
69031;DHT22;56083;48.774;8.942;2023-11-19T09:28:36;14.20;99.90
69031;DHT22;56083;48.774;8.942;2023-11-19T09:31:02;14.30;99.90
69031;DHT22;56083;48.774;8.942;2023-11-19T09:35:56;14.30;99.90
69031;DHT22;56083;48.774;8.942;2023-11-19T09:38:23;14.80;99.90
69031;DHT22;56083;48.774;8.942;2023-11-19T09:40:48;16.00;99.90
69031;DHT22;56083;48.774;8.942;2023-11-19T09:43:15;16.70;99.90
69031;DHT22;56083;48.774;8.942;2023-11-19T09:46:02;18.50;99.90
69031;DHT22;56083;48.774;8.942;2023-11-19T09:48:33;19.60;99.90
69031;DHT22;56083;48.774;8.942;2023-11-19T09:51:00;20.70;99.90
69031;DHT22;56083;48.774;8.942;2023-11-19T09:53:26;20.20;99.90
69031;DHT22;56083;48.774;8.942;2023-11-19T09:55:52;19.70;99.90
69031;DHT22;56083;48.774;8.942;2023-11-19T09:58:18;19.50;99.90
69031;DHT22;56083;48.774;8.942;2023-11-19T10:00:47;19.80;99.90
69031;DHT22;56083;48.774;8.942;2023-11-19T10:03:13;19.40;99.90
69031;DHT22;56083;48.774;8.942;2023-11-19T10:05:40;18.50;99.90
69031;DHT22;56083;48.774;8.942;2023-11-19T10:08:08;17.60;99.90
69031;DHT22;56083;48.774;8.942;2023-11-19T10:10:35;16.80;99.90
69031;DHT22;56083;48.774;8.942;2023-11-19T10:13:03;16.70;99.90
69031;DHT22;56083;48.774;8.942;2023-11-19T10:15:36;17.10;99.90
69031;DHT22;56083;48.774;8.942;2023-11-19T10:18:05;16.90;99.90
69031;DHT22;56083;48.774;8.942;2023-11-19T10:20:37;16.40;99.90
69031;DHT22;56083;48.774;8.942;2023-11-19T10:23:03;16.00;99.90
69031;DHT22;56083;48.774;8.942;2023-11-19T10:25:29;15.50;99.90
69031;DHT22;56083;48.774;8.942;2023-11-19T10:27:56;15.50;99.90
69031;DHT22;56083;48.774;8.942;2023-11-19T10:30:24;16.20;99.90
69031;DHT22;56083;48.774;8.942;2023-11-19T10:35:50;17.60;99.90
69031;DHT22;56083;48.774;8.942;2023-11-19T10:38:17;18.90;99.90
69031;DHT22;56083;48.774;8.942;2023-11-19T10:40:43;19.40;99.90
69031;DHT22;56083;48.774;8.942;2023-11-19T10:43:09;19.40;99.90
69031;DHT22;56083;48.774;8.942;2023-11-19T10:45:37;18.70;99.90
69031;DHT22;56083;48.774;8.942;2023-11-19T10:48:06;18.20;99.90
69031;DHT22;56083;48.774;8.942;2023-11-19T10:50:37;18.20;99.90
69031;DHT22;56083;48.774;8.942;2023-11-19T10:53:05;17.90;99.90
69031;DHT22;56083;48.774;8.942;2023-11-19T10:55:37;17.30;99.90
69031;DHT22;56083;48.774;8.942;2023-11-19T10:58:10;17.10;99.90
69031;DHT22;56083;48.774;8.942;2023-11-19T11:00:44;17.00;99.90
69031;DHT22;56083;48.774;8.942;2023-11-19T11:03:21;17.00;99.90
69031;DHT22;56083;48.774;8.942;2023-11-19T11:05:50;17.20;99.90
69031;DHT22;56083;48.774;8.942;2023-11-19T11:08:16;16.70;99.90
69031;DHT22;56083;48.774;8.942;2023-11-19T11:10:44;16.60;99.90
69031;DHT22;56083;48.774;8.942;2023-11-19T11:13:10;16.40;99.90
69031;DHT22;56083;48.774;8.942;2023-11-19T11:15:37;16.10;99.90
69031;DHT22;56083;48.774;8.942;2023-11-19T11:18:03;15.70;99.90
69031;DHT22;56083;48.774;8.942;2023-11-19T11:20:33;15.60;99.90
69031;DHT22;56083;48.774;8.942;2023-11-19T11:28:56;15.30;99.90
69031;DHT22;56083;48.774;8.942;2023-11-19T11:31:44;15.80;99.90
69031;DHT22;56083;48.774;8.942;2023-11-19T11:39:22;17.20;99.90
69031;DHT22;56083;48.774;8.942;2023-11-19T11:47:25;16.80;99.90
69031;DHT22;56083;48.774;8.942;2023-11-19T11:49:51;17.40;99.90
69031;DHT22;56083;48.774;8.942;2023-11-19T11:52:17;18.00;99.90
69031;DHT22;56083;48.774;8.942;2023-11-19T11:54:44;17.60;99.90
69031;DHT22;56083;48.774;8.942;2023-11-19T11:57:11;16.90;99.90
69031;DHT22;56083;48.774;8.942;2023-11-19T11:59:47;17.00;99.90
69031;DHT22;56083;48.774;8.942;2023-11-19T12:02:17;18.20;99.90
69031;DHT22;56083;48.774;8.942;2023-11-19T12:04:46;19.40;99.90
69031;DHT22;56083;48.774;8.942;2023-11-19T12:07:16;20.60;99.90
69031;DHT22;56083;48.774;8.942;2023-11-19T12:09:42;20.40;99.90
69031;DHT22;56083;48.774;8.942;2023-11-19T12:12:22;19.40;99.90
69031;DHT22;56083;48.774;8.942;2023-11-19T12:20:09;18.00;99.90
69031;DHT22;56083;48.774;8.942;2023-11-19T12:22:41;19.20;99.90
69031;DHT22;56083;48.774;8.942;2023-11-19T12:25:09;20.40;99.90
69031;DHT22;56083;48.774;8.942;2023-11-19T12:27:35;21.40;99.90
69031;DHT22;56083;48.774;8.942;2023-11-19T12:30:02;21.10;99.90
69031;DHT22;56083;48.774;8.942;2023-11-19T12:32:40;20.40;99.90
69031;DHT22;56083;48.774;8.942;2023-11-19T12:35:07;19.90;99.90
69031;DHT22;56083;48.774;8.942;2023-11-19T12:37:46;20.70;99.90
69031;DHT22;56083;48.774;8.942;2023-11-19T12:40:15;21.20;99.90
69031;DHT22;56083;48.774;8.942;2023-11-19T12:42:49;20.40;99.90
69031;DHT22;56083;48.774;8.942;2023-11-19T12:45:15;19.80;99.90
69031;DHT22;56083;48.774;8.942;2023-11-19T12:47:45;19.10;99.90
69031;DHT22;56083;48.774;8.942;2023-11-19T12:50:15;18.70;99.90
69031;DHT22;56083;48.774;8.942;2023-11-19T12:52:43;18.60;99.90
69031;DHT22;56083;48.774;8.942;2023-11-19T12:55:28;19.10;99.90
69031;DHT22;56083;48.774;8.942;2023-11-19T12:57:54;19.40;99.90
69031;DHT22;56083;48.774;8.942;2023-11-19T13:00:25;19.50;99.90
69031;DHT22;56083;48.774;8.942;2023-11-19T13:02:55;20.10;99.90
69031;DHT22;56083;48.774;8.942;2023-11-19T13:05:31;21.10;99.90
69031;DHT22;56083;48.774;8.942;2023-11-19T13:08:10;20.90;99.90
69031;DHT22;56083;48.774;8.942;2023-11-19T13:10:50;20.60;99.90
69031;DHT22;56083;48.774;8.942;2023-11-19T13:13:16;20.30;99.90
69031;DHT22;56083;48.774;8.942;2023-11-19T13:15:42;20.20;99.90
69031;DHT22;56083;48.774;8.942;2023-11-19T13:18:10;19.90;99.90
69031;DHT22;56083;48.774;8.942;2023-11-19T13:25:32;21.00;99.90
69031;DHT22;56083;48.774;8.942;2023-11-19T13:27:59;21.30;99.90
69031;DHT22;56083;48.774;8.942;2023-11-19T13:30:26;20.60;99.90
69031;DHT22;56083;48.774;8.942;2023-11-19T13:32:52;19.80;99.90
69031;DHT22;56083;48.774;8.942;2023-11-19T13:37:46;19.40;99.90
69031;DHT22;56083;48.774;8.942;2023-11-19T13:42:40;19.40;99.90
69031;DHT22;56083;48.774;8.942;2023-11-19T13:50:14;19.70;99.90
69031;DHT22;56083;48.774;8.942;2023-11-19T13:52:41;19.70;99.90
69031;DHT22;56083;48.774;8.942;2023-11-19T13:55:09;19.60;99.90
69031;DHT22;56083;48.774;8.942;2023-11-19T14:02:32;21.10;99.90
69031;DHT22;56083;48.774;8.942;2023-11-19T14:04:58;20.70;99.90
69031;DHT22;56083;48.774;8.942;2023-11-19T14:07:25;19.10;99.90
69031;DHT22;56083;48.774;8.942;2023-11-19T14:09:51;18.60;99.90
69031;DHT22;56083;48.774;8.942;2023-11-19T14:12:16;18.80;99.90
69031;DHT22;56083;48.774;8.942;2023-11-19T14:14:43;19.30;99.90
69031;DHT22;56083;48.774;8.942;2023-11-19T14:17:09;20.20;99.90
69031;DHT22;56083;48.774;8.942;2023-11-19T14:19:36;20.00;99.90
69031;DHT22;56083;48.774;8.942;2023-11-19T14:22:02;20.30;99.90
69031;DHT22;56083;48.774;8.942;2023-11-19T14:24:28;20.60;99.90
69031;DHT22;56083;48.774;8.942;2023-11-19T14:29:23;21.10;99.90
69031;DHT22;56083;48.774;8.942;2023-11-19T14:31:49;21.20;99.90
69031;DHT22;56083;48.774;8.942;2023-11-19T14:34:14;20.80;99.90
